createdAt,value
2018-12-14T05:04:28.281Z,0.00
2018-12-14T05:06:50.895Z,0.00
2018-12-14T07:00:22.722Z,-0.20
2018-12-14T07:02:45.336Z,-0.20
2018-12-14T07:05:08.041Z,-0.20
2018-12-14T07:07:30.647Z,-0.20
2018-12-14T07:09:53.232Z,-0.20
2018-12-14T07:12:15.829Z,-0.20
2018-12-14T07:14:38.440Z,-0.20
2018-12-14T08:00:24.701Z,-0.20
2018-12-14T08:02:47.304Z,-0.20
2018-12-14T08:05:10.013Z,-0.20
2018-12-14T08:07:33.565Z,-0.20
2018-12-14T08:09:56.297Z,-0.20
2018-12-14T09:01:32.740Z,-0.30
2018-12-14T09:03:55.365Z,-0.30
2018-12-14T09:06:17.955Z,-0.30
2018-12-14T09:08:40.565Z,-0.20
2018-12-14T09:11:17.765Z,-0.20
2018-12-14T09:13:40.373Z,-0.20
2018-12-14T10:05:22.513Z,0.10
2018-12-14T10:07:47.037Z,0.10
2018-12-14T10:10:10.044Z,0.20
2018-12-14T10:12:32.756Z,0.20
2018-12-14T10:14:55.318Z,0.20
2018-12-14T11:00:51.781Z,0.30
2018-12-14T11:03:14.367Z,0.30
2018-12-14T11:05:36.954Z,0.20
2018-12-14T11:07:59.605Z,0.20
2018-12-14T11:10:22.269Z,0.20
2018-12-14T11:12:44.888Z,0.20
2018-12-14T12:04:25.877Z,0.10
2018-12-14T12:06:48.481Z,0.10
2018-12-14T12:09:11.913Z,0.10
2018-12-14T12:11:34.716Z,0.10
2018-12-14T12:13:57.460Z,0.10
2018-12-14T13:05:38.277Z,-0.10
2018-12-14T13:08:01.041Z,-0.10
2018-12-14T13:10:35.977Z,-0.10
2018-12-14T13:13:08.090Z,-0.10
2018-12-14T14:01:49.977Z,-0.50
2018-12-14T14:04:13.719Z,-0.50
2018-12-14T14:06:36.346Z,-0.50
2018-12-14T14:09:15.793Z,-0.50
2018-12-14T14:11:38.365Z,-0.50
2018-12-14T14:14:00.934Z,-0.50
2018-12-14T15:02:36.432Z,-0.60
2018-12-14T15:04:59.005Z,-0.60
2018-12-14T15:07:21.624Z,-0.60
2018-12-14T15:09:44.293Z,-0.60
2018-12-14T15:12:06.945Z,-0.60
2018-12-14T15:14:29.553Z,-0.60
2018-12-14T15:35:28.185Z,-0.70
2018-12-14T15:37:50.768Z,-0.70
2018-12-14T15:40:13.457Z,-0.70
2018-12-14T15:42:36.581Z,-0.70
2018-12-14T15:44:59.279Z,-0.70
2018-12-14T15:47:28.814Z,-0.70
2018-12-14T15:49:51.628Z,-0.70
2018-12-14T15:52:14.220Z,-0.70
2018-12-14T15:54:36.830Z,-0.70
2018-12-14T15:56:59.629Z,-0.70
2018-12-14T15:59:22.265Z,-0.70
2018-12-14T16:01:45.006Z,-0.70
2018-12-14T16:04:07.645Z,-0.70
2018-12-14T16:06:31.472Z,-0.70
2018-12-14T16:08:55.197Z,-0.70
2018-12-14T16:11:18.042Z,-0.70
2018-12-14T16:13:40.966Z,-0.70
2018-12-14T16:25:19.106Z,-0.70
2018-12-14T16:27:41.826Z,-0.70
2018-12-14T16:30:05.460Z,-0.80
2018-12-14T16:32:28.092Z,-0.80
2018-12-14T16:34:50.824Z,-0.80
2018-12-14T16:37:14.652Z,-0.70
2018-12-14T16:39:38.434Z,-0.70
2018-12-14T16:42:01.032Z,-0.70
2018-12-14T16:44:23.623Z,-0.70
2018-12-14T16:46:46.359Z,-0.70
2018-12-14T16:49:08.961Z,-0.70
2018-12-14T16:51:31.599Z,-0.70
2018-12-14T16:54:01.452Z,-0.70
2018-12-14T16:56:24.597Z,-0.70
2018-12-14T16:58:47.383Z,-0.70
2018-12-14T17:01:10.134Z,-0.60
2018-12-14T17:03:32.973Z,-0.70
2018-12-14T17:05:55.591Z,-0.60
2018-12-14T17:08:18.316Z,-0.60
2018-12-14T17:10:40.925Z,-0.60
2018-12-14T17:13:03.532Z,-0.60
2018-12-14T18:04:42.908Z,-0.70
2018-12-14T18:07:05.596Z,-0.70
2018-12-14T18:09:36.044Z,-0.70
2018-12-14T18:11:58.668Z,-0.70
2018-12-14T18:14:21.369Z,-0.70
2018-12-14T19:02:43.662Z,-0.60
2018-12-14T19:05:06.400Z,-0.70
2018-12-14T19:07:28.970Z,-0.60
2018-12-14T19:09:51.766Z,-0.70
2018-12-14T19:12:14.369Z,-0.60
2018-12-14T19:14:36.969Z,-0.60
2018-12-14T20:00:16.528Z,-0.60
2018-12-14T20:02:39.158Z,-0.70
2018-12-14T20:05:01.840Z,-0.60
2018-12-14T20:07:29.137Z,-0.60
2018-12-14T20:09:51.992Z,-0.70
2018-12-14T20:12:14.815Z,-0.70
2018-12-14T20:14:37.462Z,-0.70
2018-12-14T21:00:18.104Z,-0.70
2018-12-14T21:02:40.852Z,-0.70
2018-12-14T21:05:03.815Z,-0.70
2018-12-14T21:07:38.740Z,-0.70
2018-12-14T21:10:01.429Z,-0.70
2018-12-14T21:12:24.353Z,-0.70
2018-12-14T21:14:50.754Z,-0.70
